Time;durP1;ratioP1;P1;durP2;ratioP2;P2;SDS_P1;SDS_P2;PMS_P1;PMS_P2;Temp;Humidity;BMP_temperature;BMP_pressure;BME280_temperature;BME280_humidity;BME280_pressure;Samples;Min_cycle;Max_cycle;Signal;HPM_P1;HPM_P2
2023/07/05 00:00:26;;;;;;;8.52;3.90;;;;;;;25.51;39.76;98586.44;5093278;28;20413;-46
2023/07/05 00:02:53;;;;;;;6.05;3.08;;;;;;;25.49;40.06;98586.78;5093411;28;20055;-46
2023/07/05 00:05:18;;;;;;;4.60;2.97;;;;;;;25.42;40.06;98585.59;5093305;28;20512;-46
2023/07/05 00:07:44;;;;;;;8.30;3.47;;;;;;;25.33;40.01;98579.31;5092047;28;20028;-46
2023/07/05 00:10:11;;;;;;;9.35;3.22;;;;;;;25.28;40.28;98575.66;5091921;28;20143;-46
2023/07/05 00:12:37;;;;;;;4.35;2.55;;;;;;;25.29;40.12;98574.56;5091964;28;20024;-46
2023/07/05 00:15:04;;;;;;;11.57;3.50;;;;;;;25.65;41.95;98578.38;5093157;28;20069;-46
2023/07/05 00:17:34;;;;;;;24.45;9.07;;;;;;;26.05;42.22;98571.28;5093104;28;20061;-46
2023/07/05 00:20:00;;;;;;;12.07;7.68;;;;;;;26.37;41.92;98565.97;5093056;28;20046;-46
2023/07/05 00:22:26;;;;;;;13.15;5.68;;;;;;;26.33;41.82;98570.38;5093040;28;20528;-46
2023/07/05 00:24:53;;;;;;;9.35;3.65;;;;;;;26.38;41.98;98567.56;5091723;28;20021;-46
2023/07/05 00:27:20;;;;;;;11.50;3.42;;;;;;;26.21;42.40;98560.19;5091587;28;20024;-46
2023/07/05 00:29:45;;;;;;;10.98;3.88;;;;;;;26.03;42.26;98562.75;5092929;28;20385;-46
2023/07/05 00:32:11;;;;;;;7.95;3.17;;;;;;;25.70;42.70;98562.13;5092571;28;20040;-46
2023/07/05 00:34:36;;;;;;;6.30;2.97;;;;;;;25.66;43.26;98571.91;5091525;28;20059;-46
2023/07/05 00:37:02;;;;;;;6.53;2.97;;;;;;;25.45;44.98;98568.84;5090779;28;20051;-46
2023/07/05 00:39:28;;;;;;;10.20;3.05;;;;;;;25.28;45.69;98567.59;5092859;28;20063;-45
2023/07/05 00:41:54;;;;;;;6.40;3.08;;;;;;;25.21;44.81;98563.69;5091266;28;20023;-46
2023/07/05 00:44:20;;;;;;;8.50;2.90;;;;;;;25.01;43.95;98559.50;5091259;28;20085;-46
2023/07/05 00:46:51;;;;;;;9.73;4.35;;;;;;;24.97;44.95;98562.00;5091273;28;20024;-46
2023/07/05 00:49:20;;;;;;;9.98;3.20;;;;;;;25.05;44.08;98565.88;5092613;28;20044;-46
2023/07/05 00:52:00;;;;;;;6.30;2.88;;;;;;;24.96;43.27;98573.03;5092532;28;20024;-46
2023/07/05 00:54:30;;;;;;;14.27;3.58;;;;;;;24.80;43.16;98575.22;5092538;28;20090;-46
2023/07/05 00:57:11;;;;;;;14.10;4.40;;;;;;;24.78;43.46;98567.44;5091245;28;20513;-46
2023/07/05 00:59:46;;;;;;;9.32;3.75;;;;;;;24.88;43.90;98572.63;5091213;28;20031;-46
2023/07/05 01:02:14;;;;;;;6.28;3.30;;;;;;;25.03;43.06;98568.06;5092303;28;20039;-46
2023/07/05 01:04:40;;;;;;;6.82;3.22;;;;;;;25.09;43.58;98566.84;5091001;28;20084;-46
2023/07/05 01:07:06;;;;;;;12.68;3.13;;;;;;;25.33;42.37;98566.66;5092281;28;20374;-46
2023/07/05 01:09:32;;;;;;;10.90;3.00;;;;;;;25.17;42.91;98568.84;5090934;28;20490;-46
2023/07/05 01:12:00;;;;;;;7.60;3.10;;;;;;;25.29;42.56;98569.19;5092156;28;20073;-46
2023/07/05 01:14:54;;;;;;;10.75;3.45;;;;;;;25.40;41.63;98580.50;5090891;28;20051;-46
2023/07/05 01:17:40;;;;;;;7.10;4.07;;;;;;;25.18;41.05;98570.44;5092118;28;20028;-46
2023/07/05 01:20:34;;;;;;;6.38;3.05;;;;;;;24.71;41.68;98581.28;5092283;28;20051;-46
2023/07/05 01:23:41;;;;;;;11.68;4.05;;;;;;;24.68;43.03;98583.75;5090774;28;20084;-46
2023/07/05 01:26:31;;;;;;;8.68;2.70;;;;;;;24.82;43.77;98589.13;5091993;28;20081;-46
2023/07/05 01:29:23;;;;;;;5.80;2.67;;;;;;;24.80;44.98;98577.91;5091897;28;20035;-46
2023/07/05 01:32:00;;;;;;;7.22;3.15;;;;;;;24.06;47.15;98583.91;5091690;28;20056;-46
2023/07/05 01:34:49;;;;;;;6.35;3.38;;;;;;;23.65;47.72;98585.28;5092055;28;20097;-46
2023/07/05 01:37:34;;;;;;;5.63;2.47;;;;;;;23.26;49.05;98590.84;5091934;28;20486;-46
2023/07/05 01:39:59;;;;;;;5.63;2.58;;;;;;;22.90;49.55;98585.88;5091869;28;20520;-45
2023/07/05 01:42:28;;;;;;;8.32;2.90;;;;;;;22.39;51.42;98584.47;5091793;28;20020;-46
2023/07/05 01:44:54;;;;;;;8.57;3.53;;;;;;;22.11;52.38;98589.47;5091838;28;20466;-46
2023/07/05 01:47:57;;;;;;;6.32;3.28;;;;;;;22.06;52.73;98592.16;5090516;28;20123;-46
2023/07/05 01:50:46;;;;;;;9.10;3.60;;;;;;;21.88;53.44;98592.81;5095690;28;20032;-46
2023/07/05 01:53:15;;;;;;;8.70;3.65;;;;;;;22.26;54.10;98583.22;5095981;28;20024;-46
2023/07/05 01:56:01;;;;;;;4.75;2.90;;;;;;;22.89;53.30;98579.72;5095861;28;20012;-46
2023/07/05 01:58:30;;;;;;;6.95;3.20;;;;;;;22.75;53.34;98584.13;5094612;28;20367;-46
2023/07/05 02:00:59;;;;;;;5.53;2.75;;;;;;;22.81;53.90;98590.25;5094351;28;20020;-46
2023/07/05 02:03:26;;;;;;;10.15;3.45;;;;;;;22.93;53.56;98582.63;5095785;28;20030;-46
2023/07/05 02:05:53;;;;;;;5.95;3.05;;;;;;;22.92;52.33;98586.38;5094355;28;20030;-46
2023/07/05 02:08:25;;;;;;;5.30;3.30;;;;;;;22.60;51.31;98586.97;5094313;28;20552;-46
2023/07/05 02:10:51;;;;;;;5.45;3.10;;;;;;;22.29;52.15;98587.22;5095564;28;20020;-46
2023/07/05 02:13:18;;;;;;;5.38;3.35;;;;;;;22.00;52.81;98597.84;5094208;28;20034;-46
2023/07/05 02:15:46;;;;;;;7.22;2.78;;;;;;;21.93;53.84;98603.47;5095438;28;20438;-45
2023/07/05 02:18:11;;;;;;;9.57;3.13;;;;;;;22.10;54.40;98601.22;5095447;28;20020;-46
2023/07/05 02:20:37;;;;;;;4.97;3.05;;;;;;;22.18;54.08;98597.16;5095386;28;20028;-46
2023/07/05 02:23:03;;;;;;;6.57;3.40;;;;;;;22.28;54.49;98596.31;5077160;28;20166;-46
2023/07/05 02:25:31;;;;;;;4.60;3.22;;;;;;;22.47;54.78;98599.91;5093962;28;20035;-46
2023/07/05 02:27:56;;;;;;;9.32;3.00;;;;;;;22.72;54.18;98595.41;5093947;28;20483;-46
2023/07/05 02:30:24;;;;;;;6.53;3.40;;;;;;;23.01;52.51;98611.44;5095199;28;20107;-45
2023/07/05 02:32:49;;;;;;;8.73;3.70;;;;;;;23.04;51.88;98604.75;5094966;28;20071;-46
2023/07/05 02:35:15;;;;;;;9.57;3.17;;;;;;;22.86;52.02;98598.22;5093819;28;20104;-46
2023/07/05 02:37:41;;;;;;;6.78;3.00;;;;;;;22.65;53.11;98605.63;5095146;28;20035;-46
2023/07/05 02:40:07;;;;;;;15.23;3.55;;;;;;;22.58;53.50;98605.16;5094920;28;20030;-46
2023/07/05 02:42:32;;;;;;;10.25;3.35;;;;;;;22.79;53.44;98600.44;5095030;28;20516;-46
2023/07/05 02:44:58;;;;;;;10.13;3.35;;;;;;;22.54;53.20;98596.91;5095217;28;20016;-46
2023/07/05 02:47:24;;;;;;;12.77;3.15;;;;;;;22.06;54.33;98589.50;5093557;28;20058;-46
2023/07/05 02:49:50;;;;;;;7.00;3.50;;;;;;;21.68;55.21;98602.53;5093528;28;20031;-46
2023/07/05 02:52:15;;;;;;;5.18;3.63;;;;;;;21.40;56.24;98611.97;5094799;28;20024;-46
2023/07/05 02:54:41;;;;;;;4.72;3.38;;;;;;;21.21;56.88;98605.63;5094800;28;20020;-46
2023/07/05 02:57:07;;;;;;;5.78;3.40;;;;;;;21.11;57.22;98593.94;5093338;28;20058;-46
2023/07/05 02:59:33;;;;;;;18.90;3.88;;;;;;;21.02;57.50;98608.88;5093384;28;20020;-46
2023/07/05 03:01:59;;;;;;;4.30;2.78;;;;;;;21.22;57.32;98597.38;5093725;28;20024;-45
2023/07/05 03:04:26;;;;;;;12.35;3.40;;;;;;;21.37;56.93;98601.03;5093298;28;20016;-45
2023/07/05 03:06:51;;;;;;;5.30;3.50;;;;;;;21.33;56.95;98600.81;5094495;28;20028;-45
2023/07/05 03:09:18;;;;;;;6.50;3.50;;;;;;;21.17;57.30;98605.41;5094479;28;20031;-46
2023/07/05 03:11:44;;;;;;;9.05;3.13;;;;;;;20.89;58.69;98604.94;5094490;28;20060;-46
2023/07/05 03:14:09;;;;;;;5.38;3.25;;;;;;;20.93;59.16;98611.31;5094366;28;20020;-46
2023/07/05 03:16:35;;;;;;;10.43;3.30;;;;;;;21.14;58.99;98612.06;5093003;28;20111;-46
2023/07/05 03:19:01;;;;;;;10.00;3.58;;;;;;;21.53;58.42;98619.44;5094279;28;20047;-46
2023/07/05 03:21:26;;;;;;;9.73;4.75;;;;;;;21.92;56.76;98617.91;5092851;28;20508;-46
2023/07/05 03:23:52;;;;;;;8.07;3.90;;;;;;;21.95;55.47;98614.69;5094204;28;20481;-46
2023/07/05 03:26:17;;;;;;;7.00;2.90;;;;;;;21.77;56.09;98623.34;5094250;28;20486;-46
2023/07/05 03:28:43;;;;;;;8.93;4.18;;;;;;;21.69;56.41;98628.19;5092753;28;20112;-46
2023/07/05 03:31:12;;;;;;;5.32;3.78;;;;;;;21.80;56.52;98623.59;5093824;28;20024;-46
2023/07/05 03:33:39;;;;;;;8.65;4.72;;;;;;;21.96;56.44;98631.53;5059493;28;20482;-46
2023/07/05 03:36:11;;;;;;;14.30;3.80;;;;;;;22.09;55.82;98625.56;5093979;28;20024;-46
2023/07/05 03:38:37;;;;;;;9.55;3.33;;;;;;;21.97;55.44;98630.44;5093937;28;20020;-46
2023/07/05 03:41:07;;;;;;;9.82;4.22;;;;;;;21.72;56.26;98632.19;5093801;28;20154;-46
2023/07/05 03:43:37;;;;;;;16.45;4.10;;;;;;;21.65;56.66;98627.16;5092519;28;20027;-45
2023/07/05 03:46:05;;;;;;;5.82;3.33;;;;;;;21.99;56.43;98631.75;5093831;28;20393;-45
2023/07/05 03:48:33;;;;;;;5.57;3.47;;;;;;;22.13;55.16;98634.59;5093755;28;20024;-46
2023/07/05 03:50:59;;;;;;;9.40;3.88;;;;;;;22.06;55.18;98634.94;5093648;28;20035;-45
2023/07/05 03:53:25;;;;;;;8.80;3.60;;;;;;;22.04;55.42;98636.28;5093607;28;20024;-45
2023/07/05 03:55:51;;;;;;;6.75;3.72;;;;;;;22.11;55.03;98634.91;5094041;28;20028;-46
2023/07/05 03:58:17;;;;;;;11.00;3.53;;;;;;;21.98;55.20;98646.19;5092244;28;20020;-45
2023/07/05 04:00:43;;;;;;;8.63;5.30;;;;;;;21.96;55.64;98639.53;5093329;28;20440;-46
2023/07/05 04:03:09;;;;;;;6.72;4.70;;;;;;;21.98;55.75;98640.06;5093443;28;20026;-46
2023/07/05 04:05:34;;;;;;;8.75;3.80;;;;;;;21.69;56.45;98638.88;5093360;28;20394;-46
2023/07/05 04:08:00;;;;;;;14.43;4.28;;;;;;;21.31;57.09;98637.66;5092124;28;20016;-46
2023/07/05 04:10:26;;;;;;;9.20;3.63;;;;;;;21.05;57.79;98635.06;5092096;28;20027;-46
2023/07/05 04:12:52;;;;;;;6.18;3.95;;;;;;;20.82;58.45;98640.94;5092145;28;20095;-46
2023/07/05 04:15:18;;;;;;;5.95;4.00;;;;;;;20.71;58.78;98642.84;5091840;28;20032;-46
2023/07/05 04:17:44;;;;;;;18.00;4.07;;;;;;;20.87;59.40;98647.09;5093178;28;20035;-46
2023/07/05 04:20:10;;;;;;;6.45;3.97;;;;;;;21.57;58.52;98648.25;5091693;28;20028;-45
2023/07/05 04:22:41;;;;;;;6.35;3.63;;;;;;;21.96;56.86;98640.34;5091753;28;20040;-46
2023/07/05 04:25:08;;;;;;;12.23;4.03;;;;;;;21.93;56.64;98654.22;5093056;28;20024;-46
2023/07/05 04:27:34;;;;;;;11.05;4.70;;;;;;;21.99;56.21;98649.66;5074882;28;20024;-46
2023/07/05 04:30:03;;;;;;;12.15;4.65;;;;;;;22.31;55.68;98649.22;5092903;28;20429;-46
2023/07/05 04:32:29;;;;;;;20.58;5.35;;;;;;;22.63;55.05;98654.06;5092524;28;20040;-46
2023/07/05 04:34:54;;;;;;;19.23;5.35;;;;;;;22.97;53.75;98650.56;5091470;28;20819;-46
2023/07/05 04:37:20;;;;;;;18.30;6.25;;;;;;;22.88;53.36;98657.63;5091471;28;20024;-46
2023/07/05 04:39:45;;;;;;;9.70;4.07;;;;;;;22.75;53.24;98651.03;5091462;28;20062;-46
2023/07/05 04:42:11;;;;;;;21.25;5.25;;;;;;;22.66;54.34;98648.16;5092623;28;20111;-45
2023/07/05 04:44:37;;;;;;;14.95;4.60;;;;;;;22.99;53.34;98655.63;5091384;28;20231;-46
2023/07/05 04:47:03;;;;;;;17.67;10.13;;;;;;;23.16;52.93;98652.53;5092668;28;20024;-46
2023/07/05 04:49:28;;;;;;;15.25;4.95;;;;;;;23.31;52.67;98661.22;5091190;28;20028;-46
2023/07/05 04:51:54;;;;;;;15.20;5.00;;;;;;;23.58;51.79;98659.03;5092792;28;20483;-46
2023/07/05 04:54:19;;;;;;;12.10;5.47;;;;;;;23.77;51.01;98659.09;5092835;28;20052;-46
2023/07/05 04:56:45;;;;;;;17.05;4.40;;;;;;;24.28;50.17;98661.88;5092463;28;20054;-46
2023/07/05 04:59:11;;;;;;;13.13;4.13;;;;;;;25.17;47.91;98670.91;5092460;28;20108;-46
2023/07/05 05:01:40;;;;;;;7.75;3.70;;;;;;;25.93;45.95;98667.06;5092284;28;20020;-46
2023/07/05 05:04:05;;;;;;;13.00;3.97;;;;;;;25.87;45.01;98664.44;5092373;28;20032;-46
2023/07/05 05:06:31;;;;;;;18.50;5.07;;;;;;;25.45;46.08;98665.59;5092279;28;20035;-46
2023/07/05 05:08:57;;;;;;;13.40;4.35;;;;;;;25.71;45.41;98669.34;5092342;28;20557;-46
2023/07/05 05:11:26;;;;;;;9.02;4.15;;;;;;;26.98;43.31;98658.66;5092284;28;20094;-46
2023/07/05 05:13:52;;;;;;;22.08;5.53;;;;;;;28.72;39.47;98658.22;5090904;28;20463;-46
2023/07/05 05:16:17;;;;;;;10.32;4.20;;;;;;;29.65;37.57;98658.50;5090914;28;20393;-46
2023/07/05 05:18:43;;;;;;;7.45;3.72;;;;;;;30.57;35.76;98667.72;5090842;28;20024;-46
2023/07/05 05:21:09;;;;;;;14.45;4.22;;;;;;;31.10;34.52;98666.06;5091974;28;20020;-47
2023/07/05 05:23:36;;;;;;;16.67;4.72;;;;;;;31.55;34.12;98667.91;5091907;28;20020;-46
2023/07/05 05:26:02;;;;;;;30.33;6.38;;;;;;;32.20;33.01;98667.13;5090733;28;20024;-46
2023/07/05 05:28:29;;;;;;;21.42;5.10;;;;;;;32.31;31.94;98670.13;5092010;28;20027;-46
2023/07/05 05:31:10;;;;;;;8.63;3.80;;;;;;;31.24;33.16;98677.34;5091860;28;20496;-46
2023/07/05 05:33:36;;;;;;;5.75;3.90;;;;;;;29.54;35.65;98679.72;5092209;28;20063;-47
2023/07/05 05:36:03;;;;;;;5.97;3.67;;;;;;;29.14;36.61;98676.53;5090562;28;20107;-46
2023/07/05 05:38:28;;;;;;;12.05;4.10;;;;;;;28.39;37.98;98680.31;5091948;28;20036;-46
2023/07/05 05:41:01;;;;;;;8.32;4.03;;;;;;;27.59;39.08;98679.72;5091754;28;20077;-46
2023/07/05 05:43:27;;;;;;;18.02;4.63;;;;;;;26.86;40.94;98691.56;5090606;28;20032;-46
2023/07/05 05:45:53;;;;;;;9.13;4.00;;;;;;;26.95;41.33;98688.13;5091782;28;20023;-46
2023/07/05 05:48:18;;;;;;;8.38;3.92;;;;;;;26.94;41.18;98686.53;5090436;28;20077;-46
2023/07/05 05:50:45;;;;;;;12.20;3.90;;;;;;;26.53;41.80;98703.66;5090477;28;20085;-46
2023/07/05 05:53:11;;;;;;;7.25;3.42;;;;;;;26.47;42.36;98702.97;5090573;28;20048;-46
2023/07/05 05:55:38;;;;;;;15.63;3.53;;;;;;;26.77;42.16;98708.78;5090491;28;20760;-46
2023/07/05 05:58:05;;;;;;;10.38;3.38;;;;;;;27.20;41.70;98706.31;5091739;28;20025;-46
2023/07/05 06:00:32;;;;;;;11.85;3.97;;;;;;;27.21;41.32;98705.22;5091552;28;20023;-46
2023/07/05 06:02:57;;;;;;;17.00;3.78;;;;;;;26.90;41.59;98702.50;5090332;28;20498;-46
2023/07/05 06:05:23;;;;;;;12.93;4.45;;;;;;;27.02;42.06;98701.94;5091625;28;20016;-46
2023/07/05 06:07:49;;;;;;;23.52;4.85;;;;;;;27.47;41.56;98705.34;5090292;28;20024;-46
2023/07/05 06:10:15;;;;;;;18.63;4.78;;;;;;;27.94;40.43;98712.19;5090270;28;20020;-46
2023/07/05 06:12:41;;;;;;;57.30;8.20;;;;;;;28.07;40.03;98717.44;5091570;28;20028;-46
2023/07/05 06:15:11;;;;;;;14.43;4.20;;;;;;;27.80;39.52;98720.38;5091549;28;20024;-46
2023/07/05 06:17:38;;;;;;;16.83;4.47;;;;;;;27.42;39.99;98727.03;5091785;28;20389;-46
2023/07/05 06:20:07;;;;;;;13.23;4.25;;;;;;;26.89;40.93;98728.66;5090072;28;20012;-46
2023/07/05 06:22:36;;;;;;;6.55;3.88;;;;;;;26.41;41.73;98734.59;5091498;28;20016;-46
2023/07/05 06:25:02;;;;;;;7.95;4.07;;;;;;;25.97;42.37;98738.75;5091446;28;20095;-46
2023/07/05 06:27:28;;;;;;;19.00;4.68;;;;;;;25.69;43.27;98749.50;5090154;28;20233;-46
2023/07/05 06:29:53;;;;;;;15.60;3.72;;;;;;;25.54;44.15;98765.13;5090106;28;20016;-46
2023/07/05 06:32:19;;;;;;;5.82;3.80;;;;;;;25.54;44.40;98765.91;5091117;28;20051;-46
2023/07/05 06:34:45;;;;;;;13.90;4.28;;;;;;;25.61;44.77;98777.06;5090064;28;20012;-45
2023/07/05 06:37:11;;;;;;;16.55;4.35;;;;;;;25.66;44.66;98774.28;5094517;28;20059;-45
2023/07/05 06:39:37;;;;;;;16.58;4.28;;;;;;;25.63;44.76;98782.16;5093769;28;20487;-46
2023/07/05 06:42:04;;;;;;;7.68;3.05;;;;;;;25.89;44.18;98785.94;5093625;28;20020;-46
2023/07/05 06:44:29;;;;;;;18.08;3.90;;;;;;;26.14;43.82;98780.38;5095003;28;20389;-46
2023/07/05 06:46:55;;;;;;;16.98;3.28;;;;;;;26.40;43.06;98781.44;5094940;28;20020;-45
2023/07/05 06:49:21;;;;;;;7.65;3.20;;;;;;;26.66;42.61;98795.16;5095136;28;20091;-45
2023/07/05 06:51:47;;;;;;;11.95;3.33;;;;;;;26.60;42.31;98796.38;5093442;28;20150;-45
2023/07/05 06:54:12;;;;;;;6.53;2.92;;;;;;;26.53;42.99;98801.34;5093488;28;20028;-46
2023/07/05 06:56:38;;;;;;;8.45;2.72;;;;;;;26.46;43.36;98803.66;5094706;28;20080;-45
2023/07/05 06:59:04;;;;;;;7.25;2.90;;;;;;;26.42;43.60;98806.16;5094696;28;20031;-45
2023/07/05 07:01:30;;;;;;;8.45;2.50;;;;;;;26.38;43.29;98815.13;5094561;28;20035;-46
2023/07/05 07:03:56;;;;;;;12.02;2.85;;;;;;;26.23;43.60;98822.41;5094572;28;20021;-46
2023/07/05 07:06:21;;;;;;;7.28;2.50;;;;;;;26.13;43.89;98817.25;5093249;28;20024;-45
2023/07/05 07:08:48;;;;;;;4.32;2.35;;;;;;;25.96;44.07;98819.72;5094500;28;20503;-45
2023/07/05 07:11:14;;;;;;;7.20;2.45;;;;;;;25.89;44.61;98826.28;5094431;28;20046;-45
2023/07/05 07:13:41;;;;;;;8.95;2.30;;;;;;;25.91;44.42;98828.69;5094425;28;20020;-45
2023/07/05 07:16:09;;;;;;;6.57;2.20;;;;;;;25.96;43.76;98825.94;5094345;28;20052;-45
2023/07/05 07:18:37;;;;;;;4.28;1.90;;;;;;;26.06;43.84;98831.09;5094348;28;20020;-45
2023/07/05 07:21:05;;;;;;;6.95;1.85;;;;;;;26.08;43.47;98828.13;5094193;28;20048;-45
2023/07/05 07:23:30;;;;;;;12.00;1.80;;;;;;;26.03;43.19;98825.53;5092871;28;20032;-46
2023/07/05 07:26:01;;;;;;;22.67;3.60;;;;;;;25.94;43.64;98827.31;5092882;28;20062;-45
2023/07/05 07:28:27;;;;;;;9.77;1.60;;;;;;;26.09;43.40;98822.41;5094219;28;20445;-45
2023/07/05 07:30:53;;;;;;;12.90;2.65;;;;;;;26.31;42.41;98829.00;5092743;28;20040;-45
2023/07/05 07:33:18;;;;;;;7.60;2.17;;;;;;;26.72;41.58;98817.38;5092496;28;20475;-45
2023/07/05 07:35:44;;;;;;;11.55;2.13;;;;;;;27.12;40.97;98822.91;5092708;28;20089;-45
2023/07/05 07:38:10;;;;;;;10.63;1.98;;;;;;;27.54;40.04;98818.13;5093889;28;20035;-45
2023/07/05 07:40:36;;;;;;;13.45;2.13;;;;;;;27.68;39.31;98824.22;5093795;28;20493;-46
2023/07/05 07:43:05;;;;;;;12.00;1.95;;;;;;;27.57;38.68;98830.19;5075764;28;20069;-45
2023/07/05 07:45:31;;;;;;;9.63;1.40;;;;;;;27.37;38.69;98831.53;5092457;28;20028;-45
2023/07/05 07:47:57;;;;;;;13.27;2.40;;;;;;;27.26;38.28;98839.84;5093484;28;20024;-46
2023/07/05 07:50:23;;;;;;;14.93;2.15;;;;;;;27.19;38.98;98839.47;5093588;28;20072;-46
2023/07/05 07:52:48;;;;;;;11.80;1.40;;;;;;;27.26;38.99;98844.44;5093695;28;20036;-46
2023/07/05 07:55:14;;;;;;;11.27;1.95;;;;;;;27.33;39.52;98838.63;5093629;28;20023;-46
2023/07/05 07:57:40;;;;;;;7.97;1.50;;;;;;;27.84;38.41;98840.78;5093605;28;20038;-46
2023/07/05 08:00:10;;;;;;;7.93;1.70;;;;;;;28.66;37.38;98832.34;5093448;28;20027;-46
2023/07/05 08:02:37;;;;;;;8.07;1.75;;;;;;;29.28;36.01;98832.03;5093390;28;20103;-46
2023/07/05 08:05:11;;;;;;;51.50;4.13;;;;;;;29.36;35.84;98832.31;5093382;28;20016;-45
2023/07/05 08:07:37;;;;;;;;;;;;;;;29.28;35.89;98828.53;5093857;28;20047;-46
2023/07/05 08:10:03;;;;;;;9.82;1.55;;;;;;;29.13;35.52;98826.31;5093252;28;19908;-45
2023/07/05 08:12:28;;;;;;;6.68;1.73;;;;;;;28.92;36.33;98823.47;5091892;28;20401;-45
2023/07/05 08:14:54;;;;;;;9.60;1.67;;;;;;;29.75;34.43;98827.78;5093281;28;20020;-46
2023/07/05 08:17:21;;;;;;;9.52;1.33;;;;;;;30.99;33.08;98822.13;5093186;28;20020;-45
2023/07/05 08:19:47;;;;;;;7.15;1.65;;;;;;;34.08;28.16;98823.91;5093403;28;20451;-45
2023/07/05 08:22:13;;;;;;;7.40;1.67;;;;;;;34.52;26.96;98820.25;5091647;28;20026;-46
2023/07/05 08:24:38;;;;;;;9.73;2.22;;;;;;;34.46;26.97;98827.13;5091699;28;20040;-46
2023/07/05 08:27:05;;;;;;;9.43;1.30;;;;;;;34.17;27.11;98823.78;5091690;28;20088;-45
2023/07/05 08:29:31;;;;;;;8.90;1.67;;;;;;;33.11;28.09;98834.28;5092986;28;20027;-46
2023/07/05 08:31:57;;;;;;;6.57;1.42;;;;;;;32.15;29.86;98833.78;5092695;28;20044;-45
2023/07/05 08:34:22;;;;;;;17.13;1.65;;;;;;;31.80;30.56;98844.28;5091508;28;20027;-45
2023/07/05 08:36:48;;;;;;;33.03;7.32;;;;;;;31.55;30.89;98846.97;5092806;28;20110;-46
2023/07/05 08:39:14;;;;;;;10.77;1.92;;;;;;;32.36;30.14;98841.03;5091499;28;20074;-45
2023/07/05 08:41:44;;;;;;;16.75;2.20;;;;;;;32.34;29.54;98840.59;5091287;28;20122;-46
2023/07/05 08:44:42;;;;;;;19.05;2.28;;;;;;;31.70;30.68;98844.72;5092685;28;20019;-46
2023/07/05 08:47:08;;;;;;;9.50;1.30;;;;;;;31.12;31.35;98860.91;5092699;28;20443;-46
2023/07/05 08:49:43;;;;;;;11.50;1.90;;;;;;;31.72;31.13;98856.03;5092594;28;20591;-46
2023/07/05 08:52:25;;;;;;;17.23;1.73;;;;;;;32.33;29.85;98861.50;5092491;28;20040;-46
2023/07/05 08:54:56;;;;;;;12.35;1.95;;;;;;;31.60;30.05;98868.44;5091476;28;20123;-46
2023/07/05 08:57:49;;;;;;;8.48;2.13;;;;;;;30.88;31.42;98872.41;5092475;28;20115;-45
2023/07/05 09:00:21;;;;;;;10.63;2.05;;;;;;;30.59;31.97;98874.06;5092317;28;20591;-46
2023/07/05 09:02:47;;;;;;;11.48;2.22;;;;;;;30.27;32.69;98868.94;5092479;28;20107;-46
2023/07/05 09:05:21;;;;;;;13.32;2.00;;;;;;;30.44;33.53;98884.31;5092327;28;20109;-46
2023/07/05 09:08:08;;;;;;;14.55;2.20;;;;;;;30.24;33.93;98879.63;5092359;28;20035;-46
2023/07/05 09:10:40;;;;;;;17.05;2.10;;;;;;;29.43;35.27;98884.78;5092247;28;20023;-46
2023/07/05 09:13:20;;;;;;;24.08;4.05;;;;;;;28.61;40.43;98891.91;5092580;28;20463;-45
2023/07/05 09:16:01;;;;;;;19.70;7.13;;;;;;;27.56;41.01;98888.72;5092231;28;20032;-45
2023/07/05 09:18:48;;;;;;;13.15;10.85;;;;;;;26.29;45.34;98898.47;5092209;28;20028;-45
2023/07/05 09:21:32;;;;;;;12.75;2.65;;;;;;;25.59;46.63;98899.41;5092106;28;20020;-46
2023/07/05 09:24:10;;;;;;;5.45;2.28;;;;;;;25.43;45.84;98898.84;5090873;28;20028;-46
2023/07/05 09:26:46;;;;;;;13.88;1.90;;;;;;;25.56;45.03;98903.50;5092025;28;20028;-45
2023/07/05 09:29:29;;;;;;;11.57;1.42;;;;;;;25.74;43.31;98903.75;5092338;28;20460;-46
2023/07/05 09:31:55;;;;;;;6.60;1.40;;;;;;;25.83;42.89;98899.28;5091684;28;20101;-46
2023/07/05 09:34:45;;;;;;;15.60;1.85;;;;;;;25.87;42.94;98897.59;5092176;28;20447;-46
2023/07/05 09:37:21;;;;;;;19.85;2.70;;;;;;;26.08;42.66;98896.16;5090642;28;20028;-46
2023/07/05 09:39:53;;;;;;;9.18;1.90;;;;;;;26.57;41.39;98903.84;5092253;28;20382;-46
2023/07/05 09:42:55;;;;;;;10.80;2.35;;;;;;;27.74;38.90;98895.00;5090382;28;20028;-46
2023/07/05 09:45:21;;;;;;;5.47;1.35;;;;;;;28.27;37.34;98894.19;5090581;28;20370;-46
2023/07/05 09:47:50;;;;;;;8.27;1.60;;;;;;;28.33;36.79;98886.72;5090494;28;20123;-45
2023/07/05 09:50:21;;;;;;;12.20;2.60;;;;;;;28.18;36.31;98882.53;5091719;28;20089;-45
2023/07/05 09:52:50;;;;;;;3.60;1.35;;;;;;;28.01;37.03;98888.69;5091821;28;20043;-46
2023/07/05 09:55:18;;;;;;;8.85;1.73;;;;;;;27.86;37.62;98880.94;5090379;28;20017;-46
2023/07/05 09:57:45;;;;;;;12.75;2.08;;;;;;;28.03;37.68;98875.66;5091770;28;20065;-46
2023/07/05 10:00:21;;;;;;;16.48;2.53;;;;;;;30.20;35.12;98873.28;5091588;28;20031;-46
2023/07/05 10:02:48;;;;;;;8.13;1.60;;;;;;;31.75;31.73;98869.69;5090433;28;20121;-46
2023/07/05 10:05:24;;;;;;;7.40;1.45;;;;;;;33.24;30.04;98863.00;5091604;28;20078;-46
2023/07/05 10:07:56;;;;;;;5.22;1.20;;;;;;;34.01;28.65;98867.34;5092009;28;20371;-46
2023/07/05 10:10:37;;;;;;;5.45;1.27;;;;;;;34.11;28.64;98866.00;5093639;28;20031;-47
2023/07/05 10:13:11;;;;;;;8.02;1.98;;;;;;;35.03;27.50;98871.94;5095697;28;20390;-46
2023/07/05 10:15:51;;;;;;;5.40;1.67;;;;;;;35.33;26.87;98871.38;5094335;28;20020;-46
2023/07/05 10:18:27;;;;;;;7.80;1.85;;;;;;;35.14;26.84;98875.69;5077369;28;20035;-46
2023/07/05 10:20:55;;;;;;;7.70;1.25;;;;;;;34.70;27.82;98867.78;5094134;28;20123;-47
2023/07/05 10:23:22;;;;;;;12.10;1.52;;;;;;;34.40;27.66;98879.16;5095395;28;20363;-46
2023/07/05 10:25:51;;;;;;;12.43;1.67;;;;;;;34.02;27.91;98888.75;5095358;28;20285;-46
2023/07/05 10:28:25;;;;;;;6.03;1.33;;;;;;;33.97;27.68;98880.88;5095304;28;20020;-46
2023/07/05 10:30:52;;;;;;;;;;;;;;;34.87;27.53;98887.59;5095714;28;20032;-47
2023/07/05 10:33:23;;;;;;;9.07;2.30;;;;;;;36.22;25.68;98880.31;5094935;28;19915;-47
2023/07/05 10:36:10;;;;;;;9.35;1.40;;;;;;;37.98;24.04;98871.44;5093904;28;20031;-47
2023/07/05 10:38:42;;;;;;;9.93;1.85;;;;;;;39.18;22.03;98870.94;5093873;28;20464;-47
2023/07/05 10:41:57;;;;;;;9.40;1.20;;;;;;;39.02;22.47;98868.53;5094980;28;20078;-47
2023/07/05 10:44:26;;;;;;;;;;;;;;;38.98;22.17;98868.56;5033014;28;20067;-47
2023/07/05 10:46:54;;;;;;;3.15;1.17;;;;;;;38.88;21.86;98863.78;5032553;28;19909;-47
2023/07/05 10:49:19;;;;;;;3.80;1.02;;;;;;;38.21;22.74;98863.00;5032489;28;20034;-47
2023/07/05 10:51:54;;;;;;;5.03;1.25;;;;;;;38.20;22.55;98863.41;5015979;28;20139;-47
2023/07/05 10:54:42;;;;;;;3.80;1.42;;;;;;;37.73;23.28;98865.75;5032414;28;20041;-47
2023/07/05 10:57:42;;;;;;;3.83;1.15;;;;;;;37.91;23.05;98863.97;5032372;28;20072;-47
2023/07/05 11:00:39;;;;;;;5.22;1.05;;;;;;;37.94;22.01;98862.41;5010872;28;20419;-47
2023/07/05 11:03:37;;;;;;;4.15;1.00;;;;;;;36.78;23.67;98860.44;5032376;28;20083;-47
2023/07/05 11:06:03;;;;;;;15.38;1.92;;;;;;;36.88;23.60;98858.97;5015561;28;20170;-47
2023/07/05 11:08:33;;;;;;;1.77;0.90;;;;;;;36.93;23.73;98866.09;5032202;28;20025;-47
2023/07/05 11:11:15;;;;;;;4.35;1.25;;;;;;;36.87;23.39;98862.09;5032107;28;20037;-47
2023/07/05 11:13:42;;;;;;;7.65;1.73;;;;;;;35.90;24.17;98860.66;5032156;28;20480;-46
2023/07/05 11:16:14;;;;;;;29.00;2.78;;;;;;;35.30;24.96;98859.25;5032000;28;20034;-46
2023/07/05 11:18:40;;;;;;;9.75;1.40;;;;;;;34.91;25.46;98867.41;5020184;28;20484;-46
2023/07/05 11:21:52;;;;;;;4.95;1.48;;;;;;;35.00;25.43;98859.03;5093678;28;20094;-46
2023/07/05 11:24:43;;;;;;;9.20;2.00;;;;;;;34.55;25.87;98853.03;5092186;28;20038;-46
2023/07/05 11:27:36;;;;;;;8.45;1.70;;;;;;;34.11;26.15;98852.38;5094379;28;20039;-47
2023/07/05 11:30:01;;;;;;;17.55;3.22;;;;;;;33.77;27.16;98841.09;5091345;28;20060;-46
2023/07/05 11:32:48;;;;;;;2.60;1.20;;;;;;;33.60;26.80;98840.25;5093815;28;20465;-47
2023/07/05 11:35:47;;;;;;;6.03;1.92;;;;;;;33.53;27.20;98833.84;5092518;28;20024;-47
2023/07/05 11:38:40;;;;;;;6.80;1.90;;;;;;;33.56;27.17;98847.53;5093964;28;20497;-46
2023/07/05 11:41:37;;;;;;;5.55;1.40;;;;;;;33.88;26.91;98850.28;5093757;28;20063;-47
2023/07/05 11:44:27;;;;;;;3.03;1.63;;;;;;;34.36;26.41;98850.25;5093856;28;20030;-47
2023/07/05 11:46:54;;;;;;;2.65;1.17;;;;;;;35.06;25.93;98846.69;5093812;28;20056;-47